Unicom:                    122.8

AWOS:                  118.275

Elevation           1458’ MSL

TPA:                   2500’ MSL

06/24:         5003’ L   75’ W

PAPI:       06/Left     24/Left

(Operate lights on unicom freq.)

Traffic Pattern: Left

Beacon: Sunset to Sunrise

Windsock: yes, lighted

Segmented Circle: No

 

Cleveland Center: 126.72/291.65

FSS: Altoona

[Source: ADDS]
METAR
KFKL 291156Z AUTO 14003KT 10SM BKN010 OVC029 02/02 A3013 RMK AO2 SLP218 70002 T00220022 10022 20017 52012 FZRANO =
KFKL 291125Z 2912/3012 13004KT P6SM OVC025 FM292000 15008KT P6SM SCT035 BKN250 FM300100 14014G22KT P6SM OVC100 FM300600 15011G24KT P6SM VCSH BKN060 WS020/19040KT FM301000 16012G26KT 6SM -SHRA OVC015 WS020/20050KT
TAF
KFKL 291125Z 2912/3012 13004KT P6SM OVC025 FM292000 15008KT P6SM SCT035 BKN250 FM300100 14014G22KT P6SM OVC100 FM300600 15011G24KT P6SM VCSH BKN060 WS020/19040KT FM301000 16012G26KT 6SM -SHRA OVC015 WS020/20050KT =
[Source: ADDS]
METAR
KDUJ 291153Z AUTO 00000KT 10SM OVC026 03/00 A3013 RMK AO2 SLP215 T00280000 10028 20011 53015 =
KDUJ 291125Z 2912/3012 13006KT P6SM OVC025 FM291800 16008KT P6SM BKN025 FM292000 15008KT P6SM SCT035 BKN060 FM300500 14010G21KT P6SM BKN100 WS020/19040KT FM301000 16011G24KT 6SM -SHRA OVC025 WS020/19055KT
TAF
KDUJ 291125Z 2912/3012 13006KT P6SM OVC025 FM291800 16008KT P6SM BKN025 FM292000 15008KT P6SM SCT035 BKN060 FM300500 14010G21KT P6SM BKN100 WS020/19040KT FM301000 16011G24KT 6SM -SHRA OVC025 WS020/19055KT =

Flight Training.

                                    - 


                                                                                                      Bill Guth - CFI/ CFII/MEI

                                                                                                              814-229-5974

                                                                                                             Facebook Page


Practice Test Questions:                   http://www.exams4pilots.org/           http://www.airsafetyinstitute.org/tol_abortpoint 

                                                             http://www.mypilottests.com/           http://www.sportys.com/studybuddy


Flight Training Videos:                      http://www.rogerdodger.net/flighttraining/home.html

                                                            http://pilottutor.org/                              http://www.123pilot.com/

                                                            http://www.airsafetyinstitute.org/tol_abortpoint